Kezdőlap
METAR-TAF:

METAR-TAF

Repülőterek :

Magyarhradis, Csehország

földrajzi szélesség: 49-01-46N, földrajzi hosszúság: 017-26-23E, magasság: 177 m

Jelenlegi meteorológiai megfigyelések

A jelentés 1 órával és 5 perccel ezelõtt készült, 09:00 UTC
Déli szél 5 kt, délkeleti és nyugati között változik
Hőmérséklet 27°C
Páratartalom 51%
Légköri nyomás 1021 hPa
Látótávolság 10 km, vagy több
Kevés felhő 4300 lábon

METAR: LKKU 280900Z 18005KT 130V260 9999 FEW043 27/16 Q1021

Idő: 12:05 (10:05 UTC)


TAF: hiányzik

Meteorológiai megfigyelések és előrejelzések több, mint 4000 repülőtéren (METAR és TAF jelentéseket).

A térképen piros és sárga pontok jelzik az elérhető meteorológiai állomásokat.

Mozgassa az egeret a pont fölött, hogy megjelenjen az állomás neve.

Azután kattintson az időjárási megfigyelések és előrejelzések megtekintéséhez.

A térkép megváltoztatása: kattintson a fekete keresztel jelölt zöld gombra ráközelítéshez, a vonallal jelölt zöld gombra távolításhoz, vagy a zöld nyilakra a szomszédos térképek eléréséhez.


METAR-TAF: